Strona główna
METAR-TAF:

METAR-TAF

Lotnisko :

Port lotniczy Rotterdam

Rotterdam, Holandia

Szerokość geograficzna: 51-57N, Długość geograficzna: 004-27E, wysokość: -5 m

Aktualna obserwacja pogody

Raport powstał 27 minut temu, godzina 00:55 UTC
Wiatr 7 kt od wschodnio-południowy wschód, zmienny między wschód i południowy wschód
Temperatura 7°C
Wilgotność 61%
Ciśnienie 1022 hPa
Widzialność 10 km lub więcej

METAR: EHRD 050055Z AUTO 11007KT 080V140 9999 NCD 07/M00 Q1022 NOSIG

czas: 03:22 (01:22 UTC)

Prognoza

Raport powstał 2 godziny i 49 minut temu, godzina 22:33 UTC
Prognoza ważna od 05 godzina 00 UTC do 06 godzina 06 UTC
Wiatr 7 kt od wschodnio-południowy wschód
Widzialność 10 km lub więcej
Brak chmur poniżej 1500 m i brak chmur cumulonimbus
Stopniowe zmiany
od 05 godzina 08 UTC do 05 godzina 11 UTC
Wiatr 17 kt od południowy wschód
Stopniowe zmiany
od 05 godzina 15 UTC do 05 godzina 18 UTC
Wiatr 10 kt od południowy wschód

TAF: EHRD 042233Z 0500/0606 12007KT CAVOK BECMG 0508/0511 14017KT BECMG 0515/0518 14010KT

Obserwacja i prognoza pogody dla ponad 4000 lotnisk (raport METAR i TAF).

Dostępne stacje oznaczono żółtymi i czerwonymi punktami na mapie.

Najedź kursorem aby zobaczyć nazwę stacji.

Kliknij aby zobaczyć obserwacje i prognozy pogody.

Aby zmienić mapę: kliknij na zielony przycisk z czarnym krzyżykiem, aby powiększyć; na zielony przycisk z myślnikiem, aby pomniejszyć; na zielone strzałki, aby przejść do map sąsiednich.


METAR-TAF: